Time;durP1;ratioP1;P1;durP2;ratioP2;P2;SDS_P1;SDS_P2;PMS_P1;PMS_P2;Temp;Humidity;BMP_temperature;BMP_pressure;BME280_temperature;BME280_humidity;BME280_pressure;Samples;Min_cycle;Max_cycle;Signal;HPM_P1;HPM_P2
2023/06/30 00:02:11;;;;;;;5.50;4.33;;;;;;;16.66;85.52;94757.53;5103268;28;20206;-42
2023/06/30 00:04:39;;;;;;;4.33;3.93;;;;;;;16.62;86.01;94758.88;5090686;28;20197;-44
2023/06/30 00:07:08;;;;;;;5.73;4.33;;;;;;;16.59;85.99;94750.69;5090514;28;20182;-45
2023/06/30 00:09:35;;;;;;;4.70;4.07;;;;;;;16.63;85.58;94760.50;5090587;28;20185;-43
2023/06/30 00:12:02;;;;;;;5.27;4.57;;;;;;;16.63;85.14;94754.53;5090691;28;20189;-44
2023/06/30 00:14:28;;;;;;;6.23;4.50;;;;;;;16.62;85.59;94758.06;5090391;28;20225;-44
2023/06/30 00:16:56;;;;;;;4.67;4.13;;;;;;;16.36;85.50;94719.69;5090477;28;20189;-43
2023/06/30 00:19:23;;;;;;;5.03;4.47;;;;;;;16.56;85.87;94752.63;5090279;28;20197;-43
2023/06/30 00:21:52;;;;;;;6.13;4.33;;;;;;;16.50;86.31;94760.28;5090353;28;20232;-44
2023/06/30 00:24:19;;;;;;;5.63;4.47;;;;;;;16.40;86.47;94751.94;5090490;28;20190;-43
2023/06/30 00:26:46;;;;;;;4.97;4.40;;;;;;;16.40;86.86;94759.66;5090225;28;20272;-44
2023/06/30 00:29:13;;;;;;;4.90;4.50;;;;;;;16.35;87.14;94755.03;5090050;28;20225;-43
2023/06/30 00:31:39;;;;;;;5.20;4.70;;;;;;;16.31;87.50;94751.19;5090122;28;20219;-43
2023/06/30 00:34:06;;;;;;;5.13;4.73;;;;;;;16.28;87.81;94754.94;5090015;28;20232;-43
2023/06/30 00:36:33;;;;;;;7.17;4.73;;;;;;;16.26;87.90;94751.69;5071893;28;20197;-45
2023/06/30 00:39:02;;;;;;;5.90;4.33;;;;;;;16.20;88.23;94749.81;5090219;28;20196;-45
2023/06/30 00:41:29;;;;;;;4.97;4.57;;;;;;;16.09;88.74;94733.91;5090244;28;20262;-44
2023/06/30 00:43:56;;;;;;;5.20;4.70;;;;;;;16.17;89.33;94762.25;5089942;28;20193;-45
2023/06/30 00:46:23;;;;;;;4.90;4.50;;;;;;;16.14;89.52;94755.63;5090029;28;20217;-45
2023/06/30 00:48:50;;;;;;;5.43;5.03;;;;;;;16.15;89.56;94753.84;5089921;28;20193;-45
2023/06/30 00:51:17;;;;;;;4.87;4.47;;;;;;;16.12;90.18;94755.00;5089698;28;20251;-43
2023/06/30 00:53:44;;;;;;;5.30;4.77;;;;;;;16.10;90.29;94751.78;5089941;28;20220;-42
2023/06/30 00:56:13;;;;;;;10.67;5.70;;;;;;;16.08;90.49;94747.78;5090025;28;20612;-44
2023/06/30 00:58:39;;;;;;;6.27;5.67;;;;;;;16.08;90.92;94758.09;5089661;28;20193;-43
2023/06/30 01:01:13;;;;;;;5.40;4.90;;;;;;;16.04;91.12;94748.13;5090013;28;20190;-44
2023/06/30 01:03:43;;;;;;;5.90;5.13;;;;;;;16.02;91.56;94757.81;5089779;28;20255;-44
2023/06/30 01:06:18;;;;;;;5.57;4.83;;;;;;;15.96;91.61;94752.50;5089652;28;20284;-43
2023/06/30 01:08:51;;;;;;;5.33;4.90;;;;;;;15.95;91.91;94754.28;5089810;28;20189;-45
2023/06/30 01:11:20;;;;;;;5.93;5.33;;;;;;;15.93;92.24;94756.25;5092749;28;20189;-44
2023/06/30 01:13:48;;;;;;;5.57;5.07;;;;;;;15.87;92.49;94751.75;5094188;28;20354;-45
2023/06/30 01:16:18;;;;;;;8.90;5.40;;;;;;;15.80;92.79;94748.22;5093847;28;20270;-41
2023/06/30 01:18:46;;;;;;;5.80;5.40;;;;;;;15.86;93.07;94759.66;5093959;28;20573;-44
2023/06/30 01:21:14;;;;;;;7.17;5.97;;;;;;;15.88;92.47;94755.94;5093752;28;20201;-44
2023/06/30 01:23:48;;;;;;;6.77;6.07;;;;;;;15.87;92.65;94754.34;5093668;28;20200;-43
2023/06/30 01:26:16;;;;;;;5.47;5.07;;;;;;;15.80;92.67;94743.06;5093514;28;20195;-42
2023/06/30 01:28:45;;;;;;;6.17;5.63;;;;;;;15.82;92.78;94748.09;5093681;28;20253;-46
2023/06/30 01:31:13;;;;;;;6.20;5.50;;;;;;;15.80;92.84;94743.91;5093269;28;20204;-42
2023/06/30 01:33:41;;;;;;;6.13;5.40;;;;;;;15.78;93.15;94745.84;5093519;28;20186;-45
2023/06/30 01:36:08;;;;;;;6.57;5.60;;;;;;;15.77;93.17;94740.84;5093591;28;20564;-43
2023/06/30 01:38:35;;;;;;;6.20;5.60;;;;;;;15.77;92.96;94741.66;5093236;28;20276;-45
2023/06/30 01:41:04;;;;;;;6.67;6.07;;;;;;;15.77;93.18;94733.91;5093739;28;20185;-45
2023/06/30 01:43:32;;;;;;;6.10;5.60;;;;;;;15.76;93.25;94728.94;5093078;28;20193;-44
2023/06/30 01:46:00;;;;;;;8.47;6.13;;;;;;;15.71;93.81;94729.41;5093432;28;20196;-45
2023/06/30 01:48:27;;;;;;;6.97;6.03;;;;;;;15.70;93.78;94724.44;5093523;28;20567;-44
2023/06/30 01:50:56;;;;;;;6.27;5.57;;;;;;;15.61;93.94;94715.09;5093309;28;20197;-44
2023/06/30 01:53:24;;;;;;;7.27;6.17;;;;;;;15.69;93.71;94728.78;5092946;28;20190;-44
2023/06/30 01:55:54;;;;;;;8.30;5.97;;;;;;;15.70;93.95;94732.97;5093543;28;20214;-45
2023/06/30 01:58:21;;;;;;;6.50;5.90;;;;;;;15.67;93.88;94723.00;5093034;28;20198;-43
2023/06/30 02:00:48;;;;;;;8.03;5.70;;;;;;;15.66;93.83;94723.16;5093115;28;20200;-45
2023/06/30 02:03:16;;;;;;;8.03;7.10;;;;;;;15.60;93.88;94722.03;5092690;28;20201;-44
2023/06/30 02:05:43;;;;;;;8.97;6.27;;;;;;;15.56;94.14;94723.34;5093147;28;20303;-44
2023/06/30 02:08:10;;;;;;;9.63;6.50;;;;;;;15.52;94.38;94722.88;5093058;28;20182;-44
2023/06/30 02:10:37;;;;;;;6.60;6.00;;;;;;;15.51;94.88;94723.84;5092970;28;20186;-46
2023/06/30 02:13:03;;;;;;;7.00;6.37;;;;;;;15.49;95.24;94732.69;5093160;28;20255;-43
2023/06/30 02:15:30;;;;;;;7.17;6.57;;;;;;;15.47;95.36;94738.03;5092602;28;20233;-45
2023/06/30 02:17:57;;;;;;;7.03;6.33;;;;;;;15.47;95.41;94739.81;5093147;28;20189;-44
2023/06/30 02:20:25;;;;;;;8.87;6.83;;;;;;;15.45;95.74;94728.84;5092684;28;20182;-43
2023/06/30 02:22:53;;;;;;;7.90;6.33;;;;;;;15.36;95.83;94714.38;5093124;28;20203;-43
2023/06/30 02:25:20;;;;;;;9.30;6.80;;;;;;;15.44;95.86;94734.97;5092249;28;20192;-43
2023/06/30 02:27:47;;;;;;;8.73;6.83;;;;;;;15.44;95.96;94734.97;5092537;28;20225;-44
2023/06/30 02:30:14;;;;;;;10.10;7.50;;;;;;;15.31;95.74;94720.03;5092256;28;20186;-44
2023/06/30 02:32:41;;;;;;;7.40;6.63;;;;;;;15.44;95.66;94729.81;5092669;28;20196;-44
2023/06/30 02:35:10;;;;;;;7.30;6.60;;;;;;;15.26;95.99;94702.50;5092317;28;20216;-44
2023/06/30 02:37:38;;;;;;;7.53;6.87;;;;;;;15.38;96.45;94736.47;5092469;28;20577;-44
2023/06/30 02:40:08;;;;;;;7.23;6.53;;;;;;;15.38;96.38;94736.47;5092339;28;20194;-46
2023/06/30 02:42:35;;;;;;;8.30;6.67;;;;;;;15.40;96.29;94738.84;5092273;28;20224;-44
2023/06/30 02:45:01;;;;;;;12.60;6.63;;;;;;;15.36;96.07;94735.81;5092304;28;20225;-43
2023/06/30 02:47:28;;;;;;;7.13;6.43;;;;;;;15.30;96.44;94734.69;5092156;28;20193;-44
2023/06/30 02:49:55;;;;;;;7.83;6.63;;;;;;;15.24;96.52;94725.06;5092967;28;20186;-43
2023/06/30 02:52:22;;;;;;;8.13;7.30;;;;;;;15.27;96.25;94731.66;5092101;28;20242;-43
2023/06/30 02:54:50;;;;;;;7.90;7.20;;;;;;;15.26;96.23;94724.88;5092065;28;20225;-44
2023/06/30 02:57:17;;;;;;;8.80;7.17;;;;;;;15.25;96.11;94731.03;5091768;28;20714;-45
2023/06/30 02:59:44;;;;;;;7.87;7.07;;;;;;;15.26;96.11;94723.13;5092131;28;20221;-43
2023/06/30 03:02:10;;;;;;;6.90;6.20;;;;;;;15.28;95.92;94730.66;5091359;28;20453;-45
2023/06/30 03:04:37;;;;;;;10.77;7.53;;;;;;;15.27;96.16;94729.88;5091901;28;20223;-46
2023/06/30 03:07:04;;;;;;;8.80;6.67;;;;;;;15.25;96.39;94724.09;5091679;28;20197;-43
2023/06/30 03:09:31;;;;;;;7.57;6.83;;;;;;;15.26;96.32;94724.88;5091885;28;20185;-43
2023/06/30 03:11:59;;;;;;;6.80;6.20;;;;;;;15.28;96.17;94722.94;5091824;28;20182;-43
2023/06/30 03:14:26;;;;;;;7.20;6.53;;;;;;;15.28;95.75;94725.50;5091632;28;20233;-43
2023/06/30 03:16:53;;;;;;;9.17;7.73;;;;;;;15.28;96.07;94716.03;5091846;28;20217;-43
2023/06/30 03:19:20;;;;;;;9.87;6.97;;;;;;;15.20;95.92;94700.59;5091630;28;20215;-45
2023/06/30 03:21:47;;;;;;;7.37;6.40;;;;;;;15.26;96.15;94714.59;5091658;28;20190;-44
2023/06/30 03:24:13;;;;;;;8.57;7.07;;;;;;;15.28;96.28;94720.38;5091156;28;20193;-45
2023/06/30 03:26:40;;;;;;;9.90;7.27;;;;;;;15.37;96.09;94718.56;5091391;28;20310;-45
2023/06/30 03:29:08;;;;;;;9.00;6.97;;;;;;;15.42;95.88;94721.47;5091179;28;20252;-44
2023/06/30 03:31:35;;;;;;;11.83;7.33;;;;;;;14.94;95.59;94649.34;5091592;28;20196;-43
2023/06/30 03:34:03;;;;;;;8.13;7.27;;;;;;;15.38;95.44;94715.84;5090901;28;20182;-44
2023/06/30 03:36:30;;;;;;;10.17;8.33;;;;;;;15.39;95.39;94717.44;5091810;28;20650;-43
2023/06/30 03:38:57;;;;;;;9.50;7.93;;;;;;;15.48;94.59;94723.38;5091487;28;20178;-42
2023/06/30 03:41:24;;;;;;;9.03;7.70;;;;;;;15.37;93.63;94703.94;5091176;28;20185;-43
2023/06/30 03:43:50;;;;;;;8.40;7.60;;;;;;;15.21;93.94;94697.06;5090801;28;20673;-44
2023/06/30 03:46:18;;;;;;;9.00;6.73;;;;;;;15.36;94.26;94733.22;5090920;28;20239;-43
2023/06/30 03:48:45;;;;;;;7.13;6.37;;;;;;;15.34;93.70;94721.50;5090638;28;20190;-43
2023/06/30 03:51:12;;;;;;;10.80;7.37;;;;;;;15.34;94.04;94722.28;5091083;28;20239;-44
2023/06/30 03:53:39;;;;;;;9.70;8.20;;;;;;;15.36;94.54;94720.34;5090610;28;20194;-43
2023/06/30 03:56:06;;;;;;;8.73;7.83;;;;;;;15.42;94.79;94722.28;5090775;28;20312;-44
2023/06/30 03:58:33;;;;;;;9.73;7.03;;;;;;;15.44;94.55;94727.25;5091072;28;20642;-43
2023/06/30 04:01:00;;;;;;;9.37;7.20;;;;;;;15.41;94.60;94728.38;5090329;28;20560;-44
2023/06/30 04:03:28;;;;;;;10.90;7.70;;;;;;;15.47;94.74;94734.66;5090676;28;20190;-44
2023/06/30 04:05:55;;;;;;;10.30;7.00;;;;;;;15.60;94.67;94734.94;5090778;28;20201;-44
2023/06/30 04:08:22;;;;;;;16.70;7.30;;;;;;;15.51;93.89;94716.13;5090765;28;20548;-42
2023/06/30 04:10:49;;;;;;;8.20;7.30;;;;;;;15.60;93.87;94740.09;5090472;28;20189;-45
2023/06/30 04:13:15;;;;;;;8.00;7.20;;;;;;;15.60;93.87;94742.66;5090478;28;20205;-44
2023/06/30 04:15:42;;;;;;;10.70;7.20;;;;;;;15.63;94.05;94741.50;5090187;28;20225;-42
2023/06/30 04:18:09;;;;;;;8.70;6.77;;;;;;;15.67;93.82;94738.47;5090936;28;20205;-43
2023/06/30 04:20:38;;;;;;;7.57;6.73;;;;;;;15.71;93.70;94732.00;5097676;28;20201;-42
2023/06/30 04:23:06;;;;;;;7.80;7.10;;;;;;;15.84;93.07;94741.78;5110899;28;20633;-51
2023/06/30 04:25:34;;;;;;;10.33;7.10;;;;;;;15.89;92.78;94744.66;5110049;28;20193;-46
2023/06/30 04:28:02;;;;;;;7.43;6.73;;;;;;;15.88;92.44;94737.06;5110355;28;20243;-46
2023/06/30 04:30:28;;;;;;;7.67;6.43;;;;;;;15.91;92.46;94741.91;5075560;28;20189;-44
2023/06/30 04:32:55;;;;;;;7.90;7.20;;;;;;;15.93;92.56;94733.03;5110630;28;20184;-44
2023/06/30 04:35:25;;;;;;;8.27;7.30;;;;;;;15.97;92.42;94734.28;5110886;28;20227;-43
2023/06/30 04:37:53;;;;;;;14.57;7.40;;;;;;;15.99;91.96;94722.03;5110805;28;20189;-46
2023/06/30 04:40:20;;;;;;;7.97;7.17;;;;;;;16.05;91.55;94721.34;5110441;28;20574;-43
2023/06/30 04:42:47;;;;;;;7.90;7.17;;;;;;;15.95;91.31;94694.19;5110001;28;20591;-43
2023/06/30 04:45:13;;;;;;;9.33;7.53;;;;;;;16.20;91.06;94728.38;5109473;28;20226;-45
2023/06/30 04:47:42;;;;;;;7.87;6.70;;;;;;;16.21;90.51;94710.13;5110289;28;20193;-44
2023/06/30 04:50:09;;;;;;;8.17;7.47;;;;;;;16.34;90.49;94731.97;5109996;28;20201;-42
2023/06/30 04:52:36;;;;;;;8.63;7.63;;;;;;;16.26;90.41;94699.28;5109885;28;20204;-43
2023/06/30 04:55:05;;;;;;;12.50;7.20;;;;;;;16.51;90.17;94729.09;5110368;28;20224;-43
2023/06/30 04:57:32;;;;;;;13.33;7.80;;;;;;;16.54;90.23;94722.81;5109844;28;20201;-43
2023/06/30 04:59:58;;;;;;;8.23;7.40;;;;;;;16.61;90.18;94726.28;5110291;28;20201;-44
2023/06/30 05:02:25;;;;;;;9.17;8.03;;;;;;;16.67;89.79;94729.97;5109942;28;20196;-44
2023/06/30 05:04:52;;;;;;;7.90;7.10;;;;;;;16.68;89.63;94721.25;5110445;28;20185;-43
2023/06/30 05:07:19;;;;;;;10.27;8.37;;;;;;;16.74;89.69;94726.53;5109706;28;20197;-43
2023/06/30 05:09:47;;;;;;;9.17;8.17;;;;;;;16.77;89.64;94725.38;5109768;28;20261;-44
2023/06/30 05:12:15;;;;;;;12.93;8.17;;;;;;;16.92;89.47;94718.44;5110100;28;20185;-44
2023/06/30 05:14:42;;;;;;;10.70;8.63;;;;;;;17.18;88.60;94727.56;5110407;28;20181;-42
2023/06/30 05:17:09;;;;;;;11.90;7.73;;;;;;;17.39;88.03;94727.66;5109878;28;20193;-44
2023/06/30 05:19:36;;;;;;;8.63;7.50;;;;;;;17.84;85.97;94725.88;5109797;28;20204;-44
2023/06/30 05:22:03;;;;;;;8.83;7.43;;;;;;;18.30;84.16;94726.38;5110171;28;20629;-44
2023/06/30 05:24:30;;;;;;;8.33;7.40;;;;;;;18.71;81.74;94728.38;5109724;28;20181;-46
2023/06/30 05:26:57;;;;;;;8.50;7.70;;;;;;;19.08;79.55;94729.03;5109966;28;20287;-44
2023/06/30 05:29:25;;;;;;;11.90;7.60;;;;;;;19.38;77.85;94724.44;5110175;28;20279;-43
2023/06/30 05:31:52;;;;;;;9.70;7.60;;;;;;;19.72;75.87;94741.00;5110143;28;20197;-44
2023/06/30 05:34:19;;;;;;;8.70;7.17;;;;;;;20.06;75.11;94742.75;5110113;28;20567;-44
2023/06/30 05:36:46;;;;;;;7.63;6.90;;;;;;;20.33;73.25;94740.22;5109840;28;20209;-45
2023/06/30 05:39:14;;;;;;;6.57;6.07;;;;;;;20.52;72.40;94737.69;5109847;28;20217;-45
2023/06/30 05:41:41;;;;;;;7.05;5.97;;;;;;;20.90;71.23;94739.72;5110181;28;20189;-45
2023/06/30 05:44:08;;;;;;;9.82;7.22;;;;;;;21.13;69.62;94748.91;5109878;28;20197;-45
2023/06/30 05:46:38;;;;;;;8.32;6.38;;;;;;;21.37;68.66;94743.09;5109909;28;20233;-45
2023/06/30 05:49:05;;;;;;;11.60;6.57;;;;;;;21.60;67.75;94737.47;5110049;28;20242;-44
2023/06/30 05:51:33;;;;;;;6.55;5.90;;;;;;;21.82;66.70;94740.59;5109690;28;20759;-43
2023/06/30 05:54:00;;;;;;;7.68;6.53;;;;;;;22.04;65.51;94736.69;5110091;28;20181;-46
2023/06/30 05:56:28;;;;;;;7.68;6.07;;;;;;;22.37;64.80;94740.97;5111050;28;20236;-44
2023/06/30 05:58:54;;;;;;;10.32;6.35;;;;;;;22.67;63.52;94749.00;5095581;28;20212;-45
2023/06/30 06:01:21;;;;;;;9.68;6.50;;;;;;;22.70;62.98;94726.91;5113401;28;20189;-45
2023/06/30 06:03:50;;;;;;;5.95;5.35;;;;;;;23.02;62.82;94743.34;5113849;28;20207;-45
2023/06/30 06:06:17;;;;;;;8.38;6.70;;;;;;;23.46;60.86;94752.00;5095127;28;20276;-45
2023/06/30 06:08:46;;;;;;;9.13;6.28;;;;;;;23.57;60.26;94753.06;5113531;28;20185;-45
2023/06/30 06:11:14;;;;;;;14.65;6.45;;;;;;;23.58;60.18;94763.31;5113188;28;20235;-45
2023/06/30 06:13:41;;;;;;;9.32;6.40;;;;;;;23.57;60.28;94763.50;5113441;28;20234;-43
2023/06/30 06:16:08;;;;;;;8.48;5.82;;;;;;;23.53;60.80;94756.13;5112832;28;20228;-44
2023/06/30 06:18:36;;;;;;;10.50;5.95;;;;;;;23.68;59.64;94750.56;5113484;28;20575;-45
2023/06/30 06:21:06;;;;;;;7.13;6.43;;;;;;;23.83;59.81;94749.41;5113115;28;20200;-45
2023/06/30 06:23:33;;;;;;;8.88;6.80;;;;;;;23.90;60.75;94755.38;5113088;28;20204;-46
2023/06/30 06:26:01;;;;;;;12.25;6.75;;;;;;;24.18;58.99;94747.78;5113236;28;20207;-46
2023/06/30 06:28:28;;;;;;;9.30;6.57;;;;;;;24.62;58.31;94742.41;5112543;28;20621;-46
2023/06/30 06:30:55;;;;;;;9.15;6.78;;;;;;;24.79;56.45;94748.59;5113098;28;20701;-45
2023/06/30 06:33:22;;;;;;;7.90;5.88;;;;;;;24.64;56.54;94749.00;5113399;28;20610;-47
2023/06/30 06:35:50;;;;;;;7.18;6.32;;;;;;;24.40;57.61;94752.56;5113216;28;20666;-46
2023/06/30 06:38:19;;;;;;;8.60;5.88;;;;;;;24.39;58.01;94751.75;5112769;28;20192;-46
2023/06/30 06:40:46;;;;;;;7.85;6.00;;;;;;;24.37;58.62;94745.97;5113128;28;20191;-47
2023/06/30 06:43:12;;;;;;;6.38;5.85;;;;;;;24.83;58.03;94743.69;5112691;28;20184;-46
2023/06/30 06:45:41;;;;;;;9.32;5.60;;;;;;;25.34;55.81;94747.50;5112831;28;20188;-45
2023/06/30 06:48:22;;;;;;;13.57;5.95;;;;;;;25.56;54.71;94729.41;5112586;28;20177;-46
2023/06/30 06:50:50;;;;;;;5.97;4.57;;;;;;;25.61;53.28;94751.28;5112478;28;20283;-45
2023/06/30 06:53:20;;;;;;;5.07;4.57;;;;;;;25.59;53.33;94749.91;5112554;28;20192;-46
2023/06/30 06:55:48;;;;;;;7.38;5.22;;;;;;;25.57;53.67;94746.72;5112524;28;20599;-46
2023/06/30 06:58:15;;;;;;;9.13;4.53;;;;;;;25.23;54.52;94708.03;5112226;28;20185;-43
2023/06/30 07:00:43;;;;;;;5.78;5.15;;;;;;;25.50;54.61;94742.38;5112427;28;20200;-45
2023/06/30 07:03:10;;;;;;;6.32;5.45;;;;;;;25.57;54.62;94742.28;5112503;28;20230;-45
2023/06/30 07:05:37;;;;;;;5.00;4.47;;;;;;;25.67;54.05;94741.69;5112396;28;20688;-45
2023/06/30 07:08:04;;;;;;;7.90;5.20;;;;;;;25.83;53.42;94741.03;5111221;28;20667;-45
2023/06/30 07:10:33;;;;;;;10.60;5.78;;;;;;;25.95;53.12;94738.34;5112286;28;20189;-46
2023/06/30 07:13:00;;;;;;;12.13;5.38;;;;;;;25.97;53.41;94733.69;5111975;28;20222;-45
2023/06/30 07:15:27;;;;;;;8.57;5.15;;;;;;;26.14;53.20;94731.13;5112886;28;20185;-44
2023/06/30 07:17:54;;;;;;;7.07;5.07;;;;;;;26.27;52.52;94728.22;5112220;28;20196;-44
2023/06/30 07:20:22;;;;;;;5.95;5.13;;;;;;;26.30;52.57;94725.16;5112187;28;20239;-44
2023/06/30 07:22:49;;;;;;;8.60;5.07;;;;;;;26.37;52.34;94733.66;5077347;28;20522;-44
2023/06/30 07:25:16;;;;;;;8.57;5.55;;;;;;;26.46;51.74;94734.88;5077194;28;20189;-44
2023/06/30 07:27:52;;;;;;;7.60;5.35;;;;;;;26.74;52.71;94728.03;5111988;28;20229;-45
2023/06/30 07:30:19;;;;;;;6.03;4.85;;;;;;;27.22;51.72;94724.88;5111779;28;20283;-44
2023/06/30 07:32:46;;;;;;;7.45;5.13;;;;;;;27.41;48.77;94721.97;5111905;28;20552;-45
2023/06/30 07:35:13;;;;;;;6.70;4.80;;;;;;;27.49;49.38;94724.97;5111710;28;20189;-45
2023/06/30 07:37:40;;;;;;;6.03;4.97;;;;;;;27.60;48.86;94725.91;5111437;28;20692;-45
2023/06/30 07:40:08;;;;;;;6.07;4.45;;;;;;;27.83;48.76;94726.75;5111912;28;20188;-46
2023/06/30 07:42:34;;;;;;;4.72;4.15;;;;;;;28.15;46.33;94725.03;5111563;28;20192;-44
2023/06/30 07:45:03;;;;;;;5.93;3.92;;;;;;;28.38;44.69;94728.47;5111045;28;20192;-45
2023/06/30 07:47:30;;;;;;;11.55;4.45;;;;;;;28.42;45.11;94730.34;5092744;28;20188;-45
2023/06/30 07:49:57;;;;;;;6.18;3.80;;;;;;;28.45;44.52;94716.69;5110921;28;20498;-44
2023/06/30 07:52:23;;;;;;;4.88;3.75;;;;;;;28.58;44.29;94725.22;5111168;28;20664;-46
2023/06/30 07:54:53;;;;;;;7.45;4.25;;;;;;;28.72;44.32;94729.84;5110922;28;20675;-45
2023/06/30 07:57:19;;;;;;;5.00;3.92;;;;;;;28.81;44.14;94726.75;5111117;28;20229;-46
2023/06/30 07:59:46;;;;;;;5.05;3.60;;;;;;;29.00;43.13;94720.06;5111203;28;20185;-45
2023/06/30 08:02:14;;;;;;;4.55;3.63;;;;;;;29.02;43.28;94720.63;5111825;28;20202;-43
2023/06/30 08:04:41;;;;;;;8.02;3.70;;;;;;;29.01;43.57;94705.84;5111038;28;20208;-44
2023/06/30 08:07:08;;;;;;;5.18;3.63;;;;;;;29.16;42.94;94718.34;5111102;28;20212;-44
2023/06/30 08:09:35;;;;;;;3.47;2.72;;;;;;;29.30;41.85;94718.69;5111310;28;20564;-44
2023/06/30 08:12:02;;;;;;;7.93;3.70;;;;;;;29.29;41.31;94717.13;5111249;28;20193;-45
2023/06/30 08:14:29;;;;;;;3.08;2.55;;;;;;;29.36;40.52;94721.13;5111076;28;20192;-44
2023/06/30 08:16:55;;;;;;;3.42;3.20;;;;;;;29.38;40.37;94713.75;5111255;28;20235;-45
2023/06/30 08:19:23;;;;;;;2.90;2.60;;;;;;;29.33;41.06;94712.94;5110622;28;20193;-46
2023/06/30 08:21:50;;;;;;;4.43;3.63;;;;;;;29.21;40.60;94710.47;5110314;28;20245;-44
2023/06/30 08:24:17;;;;;;;4.57;4.18;;;;;;;28.92;42.16;94702.84;5110786;28;20254;-46
2023/06/30 08:26:44;;;;;;;4.45;3.92;;;;;;;28.65;42.32;94699.50;5110895;28;20556;-44
2023/06/30 08:29:10;;;;;;;4.10;3.72;;;;;;;28.53;42.79;94697.00;5110873;28;20257;-44
2023/06/30 08:31:38;;;;;;;7.93;4.25;;;;;;;28.47;43.09;94690.13;5110438;28;20220;-46
2023/06/30 08:34:10;;;;;;;3.80;3.50;;;;;;;28.43;42.52;94667.97;5110543;28;20965;-45
2023/06/30 08:36:38;;;;;;;4.75;4.07;;;;;;;28.62;42.37;94695.50;5109540;28;20711;-46
2023/06/30 08:39:05;;;;;;;7.90;4.00;;;;;;;28.69;42.35;94685.56;5110434;28;20234;-44
2023/06/30 08:41:33;;;;;;;5.85;3.50;;;;;;;28.78;41.51;94678.00;5110149;28;20201;-43
2023/06/30 08:44:01;;;;;;;4.90;3.90;;;;;;;28.81;42.01;94674.09;5110721;28;20181;-45
2023/06/30 08:46:29;;;;;;;6.03;3.60;;;;;;;28.97;41.21;94675.78;5110472;28;20199;-46
2023/06/30 08:48:56;;;;;;;6.97;3.65;;;;;;;29.09;40.88;94673.78;5110332;28;20272;-44
2023/06/30 08:51:24;;;;;;;3.55;3.25;;;;;;;28.94;40.37;94669.19;5110775;28;20246;-45
2023/06/30 08:53:53;;;;;;;3.65;3.35;;;;;;;28.99;40.62;94671.09;5110258;28;20192;-45
2023/06/30 08:56:21;;;;;;;6.00;4.25;;;;;;;29.02;40.16;94661.88;5110145;28;20220;-45
2023/06/30 08:58:48;;;;;;;6.05;3.78;;;;;;;29.07;40.40;94660.09;5110376;28;20185;-44
2023/06/30 09:01:15;;;;;;;4.35;3.20;;;;;;;29.09;41.59;94662.44;5110822;28;20197;-43
2023/06/30 09:03:42;;;;;;;4.30;3.63;;;;;;;29.12;41.57;94667.22;5109963;28;20189;-45
2023/06/30 09:06:12;;;;;;;3.85;3.55;;;;;;;29.10;40.62;94662.22;5110338;28;20181;-45
2023/06/30 09:08:48;;;;;;;4.72;3.78;;;;;;;29.06;40.58;94663.78;5110165;28;20188;-45
2023/06/30 09:11:17;;;;;;;4.93;3.15;;;;;;;29.00;40.48;94656.88;5110300;28;20261;-44
2023/06/30 09:13:47;;;;;;;3.90;3.50;;;;;;;28.86;41.01;94667.00;5110050;28;20199;-44
2023/06/30 09:16:17;;;;;;;3.80;3.50;;;;;;;28.81;41.22;94659.09;5110049;28;20615;-43
2023/06/30 09:18:45;;;;;;;3.63;3.33;;;;;;;28.75;41.37;94655.59;5110015;28;20189;-47
2023/06/30 09:21:13;;;;;;;4.57;3.42;;;;;;;28.82;41.46;94660.66;5110093;28;20200;-44
2023/06/30 09:23:41;;;;;;;5.18;3.30;;;;;;;28.69;41.14;94659.25;5109655;28;20185;-45
2023/06/30 09:26:13;;;;;;;3.95;3.22;;;;;;;28.55;41.72;94659.94;5110084;28;20201;-44
2023/06/30 09:28:43;;;;;;;4.95;3.38;;;;;;;28.54;41.72;94651.25;5109608;28;20311;-44
2023/06/30 09:31:11;;;;;;;5.75;3.97;;;;;;;28.45;41.84;94642.22;5111415;28;20277;-47
2023/06/30 09:33:40;;;;;;;4.28;3.88;;;;;;;28.47;40.93;94654.06;5096067;28;20188;-43
2023/06/30 09:36:08;;;;;;;5.20;3.50;;;;;;;28.35;41.58;94653.44;5114081;28;20211;-43
2023/06/30 09:38:37;;;;;;;7.95;3.63;;;;;;;28.15;42.32;94624.28;5113919;28;20192;-45
2023/06/30 09:41:20;;;;;;;6.57;3.95;;;;;;;28.17;42.25;94640.63;5114058;28;20584;-45
2023/06/30 09:43:56;;;;;;;4.07;3.67;;;;;;;28.30;42.67;94652.56;5113343;28;20208;-44
2023/06/30 09:46:23;;;;;;;7.03;4.13;;;;;;;28.06;42.03;94650.22;5113599;28;20193;-44
2023/06/30 09:48:55;;;;;;;8.68;3.70;;;;;;;27.96;42.93;94645.66;5113381;28;20196;-44
2023/06/30 09:51:22;;;;;;;6.13;3.97;;;;;;;27.89;43.08;94631.94;5113755;28;20228;-44
2023/06/30 09:53:52;;;;;;;5.57;3.42;;;;;;;28.03;43.34;94645.50;5113114;28;20203;-45
2023/06/30 09:56:23;;;;;;;7.65;3.88;;;;;;;28.17;43.35;94638.00;5113382;28;20228;-44
2023/06/30 09:58:57;;;;;;;5.63;3.42;;;;;;;28.18;42.31;94643.00;5113418;28;20295;-45
2023/06/30 10:01:24;;;;;;;6.00;4.68;;;;;;;27.95;43.23;94630.16;5113701;28;20279;-44
2023/06/30 10:03:54;;;;;;;5.07;3.80;;;;;;;27.91;43.63;94634.31;5113299;28;20192;-46
2023/06/30 10:06:23;;;;;;;9.20;3.92;;;;;;;27.80;43.63;94640.50;5113692;28;20199;-45
2023/06/30 10:08:51;;;;;;;7.07;4.07;;;;;;;27.80;43.85;94633.41;5113194;28;20295;-45
2023/06/30 10:11:19;;;;;;;4.95;4.25;;;;;;;27.63;43.85;94622.94;5113834;28;20185;-45
2023/06/30 10:13:48;;;;;;;4.25;3.83;;;;;;;27.70;44.04;94615.66;5113081;28;20181;-44
2023/06/30 10:16:19;;;;;;;4.60;3.97;;;;;;;27.80;44.37;94619.47;5113163;28;20228;-44
2023/06/30 10:18:48;;;;;;;4.72;3.88;;;;;;;27.59;44.03;94613.16;5112734;28;20235;-44
2023/06/30 10:21:15;;;;;;;7.93;4.03;;;;;;;27.52;45.41;94611.53;5113222;28;20196;-45
2023/06/30 10:23:43;;;;;;;11.98;3.72;;;;;;;27.46;45.76;94582.81;5112800;28;20640;-44
2023/06/30 10:26:13;;;;;;;4.60;3.50;;;;;;;27.67;45.54;94603.00;5113047;28;20634;-44
2023/06/30 10:28:41;;;;;;;5.22;3.97;;;;;;;27.67;45.27;94596.97;5112990;28;20247;-45
2023/06/30 10:31:08;;;;;;;5.22;3.83;;;;;;;27.58;45.95;94598.44;5113166;28;20601;-44
2023/06/30 10:33:36;;;;;;;4.00;3.53;;;;;;;27.57;45.91;94592.41;5112686;28;20204;-43
2023/06/30 10:36:04;;;;;;;5.72;3.58;;;;;;;27.35;44.48;94587.16;5112816;28;20189;-45
2023/06/30 10:38:31;;;;;;;8.40;3.75;;;;;;;27.14;45.32;94580.84;5112641;28;20228;-44
2023/06/30 10:41:14;;;;;;;4.30;3.92;;;;;;;27.22;45.13;94582.28;5112366;28;20177;-43
2023/06/30 10:44:08;;;;;;;4.68;4.13;;;;;;;27.22;45.98;94577.81;5109313;27;20640;-45
2023/06/30 10:46:47;;;;;;;6.68;3.67;;;;;;;27.16;45.86;94577.97;5049557;28;20199;-44
2023/06/30 10:49:26;;;;;;;3.90;3.50;;;;;;;27.09;46.25;94570.28;5049637;28;20183;-46
2023/06/30 10:51:56;;;;;;;4.07;3.70;;;;;;;26.98;46.44;94558.03;5049809;28;20266;-43
2023/06/30 10:54:25;;;;;;;5.35;3.80;;;;;;;26.93;47.08;94563.22;5049570;28;20239;-45
2023/06/30 10:56:53;;;;;;;4.65;3.70;;;;;;;26.81;47.76;94555.44;5049684;28;20787;-45
2023/06/30 10:59:24;;;;;;;6.68;3.60;;;;;;;26.85;47.80;94553.16;5049407;28;20187;-46
2023/06/30 11:02:22;;;;;;;4.78;3.75;;;;;;;26.98;47.70;94558.81;5049517;28;20855;-45
2023/06/30 11:04:52;;;;;;;4.88;3.92;;;;;;;27.14;47.75;94557.22;5049335;28;20713;-46
2023/06/30 11:07:23;;;;;;;4.60;4.00;;;;;;;27.35;47.79;94558.25;5049229;28;20191;-45
2023/06/30 11:10:00;;;;;;;7.20;4.18;;;;;;;27.46;46.94;94554.72;5049129;28;20686;-43
2023/06/30 11:12:28;;;;;;;8.73;3.50;;;;;;;27.37;47.06;94548.28;5049197;28;20186;-44
2023/06/30 11:14:57;;;;;;;3.95;3.65;;;;;;;27.42;46.77;94552.84;5049189;28;20192;-44
2023/06/30 11:17:24;;;;;;;5.78;4.20;;;;;;;27.47;47.30;94548.44;5048857;28;20692;-46
2023/06/30 11:20:11;;;;;;;4.45;4.05;;;;;;;27.57;46.69;94542.47;5049030;28;20194;-45
2023/06/30 11:22:39;;;;;;;10.32;4.15;;;;;;;27.55;47.41;94536.69;5058361;28;20595;-46
2023/06/30 11:25:09;;;;;;;4.72;4.07;;;;;;;27.43;46.17;94521.06;5112095;28;20196;-51
2023/06/30 11:27:36;;;;;;;10.02;4.47;;;;;;;27.52;45.99;94524.81;5111604;28;20240;-45
2023/06/30 11:30:04;;;;;;;6.97;5.22;;;;;;;27.50;46.27;94528.72;5111892;28;20192;-45
2023/06/30 11:32:33;;;;;;;8.25;3.80;;;;;;;27.45;46.36;94516.34;5111460;28;20193;-44
2023/06/30 11:35:01;;;;;;;4.90;3.45;;;;;;;27.47;46.45;94524.00;5111719;28;20200;-45
2023/06/30 11:37:35;;;;;;;6.97;3.70;;;;;;;27.46;45.76;94517.13;5111855;28;20262;-45